Airfield :
LOGIN :

Register | Disclaimer

   EN    FR    IT 

 










Legend :    VFR   Marginal VFR   IFR   Intensive IFR   Very Intensive IFR
Visi :
Ceiling :
>= 8 km
>= 3000ft
5 to 8 km
1000 to 3000 ft
1500m to 5 km
500 to 1000 ft
800 to 1500m
200 to 500 ft
< 800m
< 200 ft
Symbols :   Thunderstorms  Fog  Heavy snow  Heavy precipitations  Wind > 20 kt
SIGMETs :     Misc.  Thunderstorms  Icing  Turbulence  Mountain Waves  Volcanic Ashes







- Airport Elevation : 19 ft
- IATA code : LCY
- Download approach charts


EGLC - London City

CURRENT METAR :
  • 180920Z AUTO VRB03KT 9999 NCD 19/10 Q1015

EXPIRED METARs :
  • 180850Z AUTO VRB03G13KT 9999 NCD 19/10 Q1015
  • 180820Z AUTO 12004KT 070V170 9999 NCD 18/10 Q1015
  • 180750Z AUTO 22004KT 120V290 9999 NCD 17/10 Q1015
  • 180720Z AUTO VRB03KT 9999 NCD 17/10 Q1015
  • 180650Z AUTO VRB03KT 9999 NCD 16/10 Q1015

TAF TAF EGLC
Valid from the 18 at 09:00 until the 18 at 18:00 UTC


180805Z 1809/1818 VRB03KT 9999 FEW040
TEMPO 1809/1818 4000 RA SHRA
PROB40
TEMPO 1810/1812 +SHRA BKN014
ATIS : +44 20 7646 0224
No reported NOTAMs for that airfield.
1 SIGMET reported for the London FIR (EGTT) :
 
Embedded thunderstorms
EGTT SIGMET 01 VALID 180732/181000 EGRR
EGTT LONDON FIR EMBD TS FCST WI N5053 W00010 - N5035 E00009 - N5000 W00102 - N5000 W00159 - N5053 W00010 TOP FL300 MOV NNE 20KT NC=



MET'MAP, your aeronautical weather chart ! - Copyright ORBIFLY December 2007 - Disclaimer

ORBIFLY MET'MAP TEAM :

Programming & Development : Alexandra Zaïnal
Concept & Development : Baudouin d'Aumeries
Co-Development & Prog : Marc-Olivier Méhu
Technical & hardware support : Manuel Goepfert

Contact : metmap@orbifly.com




SOURCES & CREDITS :

   NOAA